Aviation Digital Data Service (ADDS)

Output produced by METARs form (1952 UTC 31 January 2023)
found at http://www.aviationweather.gov/metar/data/
 
VTBU 311930Z 02006KT 3000 BR NSC 20/17 Q1010 NOSIG
VTBU 311900Z 36004KT 3000 BR NSC 20/17 Q1011 NOSIG
VTBU 311830Z 34003KT 4000 BR NSC 20/17 Q1011 NOSIG
VTBU 311800Z 36002KT 4000 BR NSC 20/17 Q1011 NOSIG
VTBU 311730Z 36003KT 4000 BR NSC 21/18 Q1011 NOSIG
VTBU 311700Z 36004KT 4000 BR NSC 21/17 Q1011 NOSIG
VTBU 311630Z 35004KT 4000 BR NSC 21/18 Q1012 NOSIG
VTBU 311600Z 35004KT 4000 BR NSC 20/17 Q1012 NOSIG
VTBU 311530Z 34002KT 4000 BR NSC 21/17 Q1012 NOSIG
VTBU 311500Z 36001KT 4000 HZ NSC 21/17 Q1012 NOSIG
VTBU 311430Z 35004KT 5000 HZ NSC 22/17 Q1012 NOSIG
VTBU 311400Z 36001KT 5000 HZ NSC 22/17 Q1012 NOSIG
VTBU 311330Z 03002KT 5000 HZ NSC 23/16 Q1011 NOSIG
VTBU 311300Z 34003KT 5000 HZ NSC 23/17 Q1011 NOSIG
VTBU 311230Z 30003KT 5000 HZ NSC 24/17 Q1010 NOSIG
VTBU 311200Z 25004KT 5000 HZ NSC 25/17 Q1010 NOSIG
VTBU 311130Z 23004KT 5000 HZ NSC 26/16 Q1010 NOSIG
VTBU 311100Z 24004KT 6000 NSC 27/16 Q1010 NOSIG
VTBU 311030Z 25006KT 6000 NSC 28/16 Q1009 NOSIG
VTBU 311000Z 17008KT 6000 NSC 28/16 Q1010 NOSIG
VTBU 310930Z 18010KT 6000 NSC 28/16 Q1009 NOSIG
VTBU 310900Z 18010KT 7000 NSC 29/16 Q1009 NOSIG
VTBU 310830Z 18010KT 7000 NSC 29/16 Q1010 NOSIG
VTBU 310800Z 18012KT 7000 NSC 29/16 Q1010 NOSIG
VTBU 310730Z 18012KT 7000 NSC 29/16 Q1010 NOSIG
VTBU 310700Z 18012KT 7000 NSC 30/16 Q1011 NOSIG
VTBU 310630Z 18012KT 7000 NSC 29/15 Q1011 NOSIG
VTBU 310600Z 17012KT 7000 NSC 30/15 Q1012 NOSIG
VTBU 310530Z 17008KT 7000 NSC 31/14 Q1012 NOSIG
VTBU 310500Z 03006KT 7000 NSC 31/12 Q1013 NOSIG
VTBU 310430Z 01006KT 7000 NSC 30/11 Q1013 NOSIG
VTBU 310400Z 01008KT 7000 NSC 29/11 Q1014 NOSIG
VTBU 310330Z 02008KT 7000 NSC 28/11 Q1014 NOSIG
VTBU 310300Z 36010KT 7000 NSC 27/11 Q1014 NOSIG
VTBU 310230Z 02012KT 7000 NSC 26/10 Q1014 NOSIG
VTBU 310200Z 01008KT 7000 NSC 25/10 Q1014 NOSIG
VTBU 310130Z 01008KT 7000 NSC 23/10 Q1014 NOSIG
VTBU 310100Z 02006KT 7000 NSC 21/12 Q1014 NOSIG
VTBU 310030Z 02006KT 7000 NSC 20/11 Q1013 NOSIG
VTBU 310000Z 02006KT 7000 NSC 19/11 Q1013 NOSIG
VTBU 302330Z 01007KT 7000 NSC 21/10 Q1012 NOSIG
VTBU 302300Z 01008KT 7000 NSC 20/10 Q1012 NOSIG
VTBU 302230Z 01007KT 7000 NSC 20/11 Q1012 NOSIG
VTBU 302200Z 36008KT 7000 NSC 21/11 Q1011 NOSIG
VTBU 302130Z 36008KT 7000 NSC 20/12 Q1011 NOSIG
VTBU 302100Z 36009KT 7000 NSC 21/11 Q1011 NOSIG
VTBU 302030Z 36009KT 7000 NSC 21/12 Q1011 NOSIG
VTBU 302000Z 35007KT 7000 NSC 21/13 Q1012 NOSIG
VTBU 301930Z 36007KT 7000 NSC 20/13 Q1012 NOSIG
VTBU 301900Z 36007KT 7000 NSC 21/14 Q1012 NOSIG
TAF VTBU 311700Z 3118/0118 36005KT 4000 BR NSC 
     BECMG 0104/0106 18010KT 7000 NSW FEW025 
     BECMG 0110/0112 01006KT